createdAt,value
2018-12-03T00:01:38.872Z,22.20
2018-12-03T00:04:11.351Z,23.55
2018-12-03T00:06:38.692Z,22.75
2018-12-03T00:09:07.805Z,22.75
2018-12-03T00:11:35.548Z,24.85
2018-12-03T00:14:02.917Z,24.12
2018-12-03T00:16:30.292Z,26.75
2018-12-03T00:18:57.648Z,24.72
2018-12-03T00:21:25.022Z,27.00
2018-12-03T00:23:52.429Z,27.95
2018-12-03T00:26:19.830Z,27.85
2018-12-03T00:28:47.334Z,24.77
2018-12-03T00:31:14.715Z,28.95
2018-12-03T00:33:42.075Z,30.32
2018-12-03T00:36:09.453Z,26.68
2018-12-03T00:38:37.504Z,26.20
2018-12-03T00:41:05.119Z,28.60
2018-12-03T00:43:32.445Z,26.05
2018-12-03T00:46:00.462Z,31.27
2018-12-03T00:48:27.877Z,29.35
2018-12-03T00:50:55.256Z,26.35
2018-12-03T00:53:22.652Z,25.68
2018-12-03T00:55:50.037Z,27.58
2018-12-03T00:58:17.956Z,27.13
2018-12-03T01:00:45.347Z,28.73
2018-12-03T01:03:12.756Z,25.25
2018-12-03T01:05:40.120Z,28.25
2018-12-03T01:08:08.092Z,29.27
2018-12-03T01:10:35.465Z,27.90
2018-12-03T01:13:02.892Z,27.67
2018-12-03T01:15:30.397Z,30.55
2018-12-03T01:17:57.798Z,28.23
2018-12-03T01:20:25.152Z,29.27
2018-12-03T01:22:52.444Z,28.30
2018-12-03T01:25:19.748Z,30.17
2018-12-03T01:27:47.139Z,32.17
2018-12-03T01:30:14.581Z,30.82
2018-12-03T01:32:42.039Z,27.00
2018-12-03T01:35:09.763Z,26.93
2018-12-03T01:37:37.273Z,27.48
2018-12-03T01:40:06.458Z,30.20
2018-12-03T01:42:33.842Z,28.70
2018-12-03T01:45:01.157Z,26.45
2018-12-03T01:47:28.518Z,26.60
2018-12-03T01:49:56.202Z,28.00
2018-12-03T01:52:23.543Z,25.77
2018-12-03T01:54:50.906Z,23.83
2018-12-03T01:57:18.664Z,25.32
2018-12-03T01:59:50.435Z,25.55
2018-12-03T02:02:17.875Z,25.12
2018-12-03T02:04:45.172Z,26.57
2018-12-03T02:07:12.474Z,25.80
2018-12-03T02:09:39.795Z,26.35
2018-12-03T02:12:07.093Z,27.60
2018-12-03T02:14:34.465Z,24.20
2018-12-03T02:17:01.786Z,24.12
2018-12-03T02:19:29.176Z,21.20
2018-12-03T02:21:56.496Z,19.55
2018-12-03T02:24:23.783Z,18.20
2018-12-03T02:26:51.102Z,17.35
2018-12-03T02:29:18.431Z,17.50
2018-12-03T02:31:45.740Z,18.02
2018-12-03T02:34:13.032Z,17.70
2018-12-03T02:36:40.357Z,19.15
2018-12-03T02:39:08.068Z,19.92
2018-12-03T02:41:35.428Z,18.80
2018-12-03T02:44:02.757Z,19.23
2018-12-03T02:46:30.133Z,20.52
2018-12-03T02:48:57.454Z,20.72
2018-12-03T02:51:24.781Z,20.55
2018-12-03T02:53:52.095Z,22.77
2018-12-03T02:56:19.462Z,21.05
2018-12-03T02:58:46.778Z,22.80
2018-12-03T03:01:14.177Z,21.40
2018-12-03T03:03:41.499Z,21.12
2018-12-03T03:06:08.972Z,21.33
2018-12-03T03:08:36.308Z,24.87
2018-12-03T03:11:03.899Z,22.98
2018-12-03T03:13:31.244Z,25.65
2018-12-03T03:15:58.654Z,24.15
2018-12-03T03:18:26.082Z,23.62
2018-12-03T03:20:53.545Z,22.52
2018-12-03T03:23:20.877Z,27.52
2018-12-03T03:25:48.123Z,24.40
2018-12-03T03:28:15.452Z,22.32
2018-12-03T03:30:43.099Z,23.95
2018-12-03T03:33:10.440Z,23.77
2018-12-03T03:35:37.856Z,24.00
2018-12-03T03:38:05.457Z,24.35
2018-12-03T03:40:32.805Z,23.80
2018-12-03T03:43:00.103Z,23.73
2018-12-03T03:45:27.482Z,24.72
2018-12-03T03:47:54.805Z,24.37
2018-12-03T03:50:22.133Z,23.42
2018-12-03T03:52:49.640Z,25.60
2018-12-03T03:55:17.108Z,23.90
2018-12-03T03:57:44.469Z,22.30
2018-12-03T04:00:13.207Z,24.50
2018-12-03T04:02:40.525Z,23.02
2018-12-03T04:05:09.003Z,22.30
2018-12-03T04:07:41.279Z,22.87
2018-12-03T04:10:09.836Z,26.10
2018-12-03T04:12:37.141Z,24.77
2018-12-03T04:15:05.224Z,26.02
2018-12-03T04:17:36.710Z,30.37
2018-12-03T04:20:05.417Z,27.52
2018-12-03T04:22:32.792Z,22.95
2018-12-03T04:25:00.078Z,25.32
2018-12-03T04:27:27.444Z,24.07
2018-12-03T04:29:54.830Z,27.52
2018-12-03T04:32:22.193Z,30.88
2018-12-03T04:34:49.561Z,23.35
2018-12-03T04:37:16.876Z,22.90
2018-12-03T04:39:44.193Z,27.75
2018-12-03T04:42:11.483Z,23.52
2018-12-03T04:44:38.817Z,22.37
2018-12-03T04:47:06.172Z,23.80
2018-12-03T04:49:33.484Z,21.05
2018-12-03T04:52:00.792Z,21.25
2018-12-03T04:54:28.225Z,20.30
2018-12-03T04:56:55.577Z,18.23
2018-12-03T04:59:22.885Z,17.27
2018-12-03T05:01:50.297Z,17.30
2018-12-03T05:04:17.696Z,15.72
2018-12-03T05:06:45.025Z,15.10
2018-12-03T05:09:12.450Z,16.77
2018-12-03T05:11:39.816Z,15.65
2018-12-03T05:14:07.117Z,14.95
2018-12-03T05:16:34.522Z,17.23
2018-12-03T05:19:01.825Z,17.10
2018-12-03T05:21:29.128Z,14.70
2018-12-03T05:23:56.447Z,14.30
2018-12-03T05:26:23.740Z,15.83
2018-12-03T05:28:51.961Z,14.55
2018-12-03T05:31:19.300Z,13.95
2018-12-03T05:33:46.588Z,14.20
2018-12-03T05:36:14.283Z,14.58
2018-12-03T05:38:41.611Z,14.83
2018-12-03T05:41:09.015Z,16.37
2018-12-03T05:43:36.348Z,16.90
2018-12-03T05:46:03.789Z,15.38
2018-12-03T05:48:31.159Z,16.60
2018-12-03T05:50:58.536Z,15.18
2018-12-03T05:53:25.874Z,14.65
2018-12-03T05:55:53.427Z,15.00
2018-12-03T05:58:20.783Z,15.23
2018-12-03T06:00:48.112Z,16.90
2018-12-03T06:03:16.248Z,15.72
2018-12-03T06:05:43.571Z,17.00
2018-12-03T06:08:10.874Z,16.45
2018-12-03T06:10:38.279Z,18.23
2018-12-03T06:13:05.586Z,19.00
2018-12-03T06:15:32.961Z,19.45
2018-12-03T06:18:00.323Z,19.17
2018-12-03T06:20:27.676Z,20.05
2018-12-03T06:22:55.087Z,21.85
2018-12-03T06:25:25.373Z,25.62
2018-12-03T06:27:52.692Z,26.27
2018-12-03T06:30:21.250Z,20.57
2018-12-03T06:32:48.597Z,22.60
2018-12-03T06:35:16.271Z,20.15
2018-12-03T06:37:43.601Z,21.25
2018-12-03T06:40:11.805Z,22.42
2018-12-03T06:42:39.117Z,27.25
2018-12-03T06:45:07.664Z,25.05
2018-12-03T06:47:35.017Z,25.70
2018-12-03T06:50:02.425Z,25.72
2018-12-03T06:52:29.832Z,27.58
2018-12-03T06:54:57.165Z,28.95
2018-12-03T06:57:24.568Z,28.27
2018-12-03T06:59:56.415Z,26.57
2018-12-03T07:02:23.820Z,29.45
2018-12-03T07:04:51.193Z,31.07
2018-12-03T07:07:18.490Z,26.80
2018-12-03T07:09:45.836Z,28.80
2018-12-03T07:12:13.156Z,27.30
2018-12-03T07:14:40.468Z,26.15
2018-12-03T07:17:07.956Z,24.35
2018-12-03T07:19:35.268Z,26.82
2018-12-03T07:22:02.688Z,23.15
2018-12-03T07:24:30.064Z,22.93
2018-12-03T07:26:57.401Z,26.93
2018-12-03T07:29:24.706Z,26.65
2018-12-03T07:31:52.098Z,24.30
2018-12-03T07:34:19.401Z,26.60
2018-12-03T07:36:46.817Z,29.07
2018-12-03T07:39:14.212Z,26.87
2018-12-03T07:41:41.512Z,22.02
2018-12-03T07:44:08.812Z,24.32
2018-12-03T07:46:36.120Z,29.82
2018-12-03T07:49:03.495Z,24.70
2018-12-03T07:51:30.836Z,23.42
2018-12-03T07:53:58.181Z,24.95
2018-12-03T07:56:25.859Z,24.82
2018-12-03T07:58:53.141Z,24.20
2018-12-03T08:01:20.464Z,21.75
2018-12-03T08:03:47.820Z,23.77
2018-12-03T08:06:15.150Z,21.15
2018-12-03T08:08:43.058Z,23.50
2018-12-03T08:11:10.368Z,20.43
2018-12-03T08:13:38.350Z,21.95
2018-12-03T08:16:05.723Z,24.32
2018-12-03T08:18:33.023Z,23.00
2018-12-03T08:21:01.375Z,20.20
2018-12-03T08:23:30.712Z,26.33
2018-12-03T08:25:58.293Z,23.90
2018-12-03T08:28:25.979Z,19.80
2018-12-03T08:30:53.227Z,25.23
2018-12-03T08:33:20.543Z,20.00
2018-12-03T08:35:47.823Z,23.22
2018-12-03T08:38:15.131Z,24.87
2018-12-03T08:40:42.441Z,22.67
2018-12-03T08:43:09.696Z,20.30
2018-12-03T08:45:36.984Z,20.57
2018-12-03T08:48:04.284Z,24.60
2018-12-03T08:50:33.663Z,22.27
2018-12-03T08:53:00.991Z,23.42
2018-12-03T08:55:28.697Z,22.50
2018-12-03T08:57:56.108Z,23.62
2018-12-03T09:00:25.120Z,20.68
2018-12-03T09:02:59.192Z,29.05
2018-12-03T09:05:28.409Z,20.85
2018-12-03T09:07:55.663Z,20.60
2018-12-03T09:10:23.000Z,22.52
2018-12-03T09:12:50.310Z,21.93
2018-12-03T09:15:17.615Z,21.52
2018-12-03T09:17:44.949Z,24.20
2018-12-03T09:20:12.218Z,23.95
2018-12-03T09:22:39.543Z,22.22
2018-12-03T09:25:08.958Z,24.15
2018-12-03T09:27:36.265Z,20.77
2018-12-03T09:30:03.592Z,18.17
2018-12-03T09:32:32.816Z,20.52
2018-12-03T09:35:02.321Z,20.65
2018-12-03T09:37:29.627Z,20.57
2018-12-03T09:39:56.896Z,22.22
2018-12-03T09:42:28.755Z,22.55
2018-12-03T09:44:56.093Z,20.80
2018-12-03T09:47:23.456Z,22.30
2018-12-03T09:49:50.767Z,23.98
2018-12-03T09:52:18.065Z,22.50
2018-12-03T09:54:45.332Z,24.02
2018-12-03T09:57:12.600Z,26.20
2018-12-03T09:59:39.889Z,21.37
2018-12-03T10:02:07.199Z,22.75
2018-12-03T10:04:39.900Z,19.75
2018-12-03T10:07:07.188Z,24.32
2018-12-03T10:09:36.345Z,20.97
2018-12-03T10:12:03.669Z,23.45
2018-12-03T10:14:30.964Z,23.70
2018-12-03T10:16:58.251Z,21.85
2018-12-03T10:19:25.553Z,19.00
2018-12-03T10:21:52.914Z,20.17
2018-12-03T10:24:20.160Z,24.15
2018-12-03T10:26:47.445Z,21.45
2018-12-03T10:29:15.715Z,22.02
2018-12-03T10:31:43.083Z,19.70
2018-12-03T10:34:12.654Z,22.93
2018-12-03T10:36:40.840Z,21.42
2018-12-03T10:39:10.892Z,21.20
2018-12-03T10:41:38.829Z,20.65
2018-12-03T10:44:06.147Z,23.15
2018-12-03T10:46:33.428Z,19.30
2018-12-03T10:49:02.175Z,23.95
2018-12-03T10:51:29.367Z,20.80
2018-12-03T10:53:56.702Z,23.15
2018-12-03T10:56:23.997Z,29.00
2018-12-03T10:58:51.310Z,29.00
2018-12-03T11:01:23.873Z,27.37
2018-12-03T11:03:56.582Z,32.45
2018-12-03T11:06:24.465Z,22.85
2018-12-03T11:08:51.759Z,25.25
2018-12-03T11:11:19.300Z,26.35
2018-12-03T11:13:46.610Z,23.35
2018-12-03T11:16:19.365Z,23.05
2018-12-03T11:18:48.728Z,22.90
2018-12-03T11:21:16.050Z,22.87
2018-12-03T11:23:43.362Z,25.32
2018-12-03T11:26:10.680Z,22.58
2018-12-03T11:28:40.123Z,28.40
2018-12-03T11:31:08.595Z,24.25
2018-12-03T11:33:35.917Z,27.65
2018-12-03T11:36:03.239Z,26.00
2018-12-03T11:38:32.245Z,21.15
2018-12-03T11:40:59.533Z,22.87
2018-12-03T11:43:27.691Z,25.43
2018-12-03T11:45:55.011Z,23.92
2018-12-03T11:48:22.403Z,22.93
2018-12-03T11:50:49.669Z,25.17
2018-12-03T11:53:18.320Z,22.65
2018-12-03T11:55:44.680Z,26.10
2018-12-03T11:58:11.979Z,21.93
2018-12-03T12:00:39.395Z,22.48
2018-12-03T12:03:06.692Z,23.18
2018-12-03T12:05:33.995Z,20.70
2018-12-03T12:08:01.298Z,23.20
2018-12-03T12:10:28.565Z,22.07
2018-12-03T12:12:55.842Z,22.22
2018-12-03T12:15:23.783Z,20.43
2018-12-03T12:17:51.129Z,19.65
2018-12-03T12:20:18.427Z,22.17
2018-12-03T12:22:45.852Z,22.42
2018-12-03T12:25:13.240Z,24.32
2018-12-03T12:27:42.628Z,26.50
2018-12-03T12:30:12.820Z,26.15
2018-12-03T12:32:40.078Z,18.65
2018-12-03T12:35:07.697Z,24.20
2018-12-03T12:37:35.037Z,21.30
2018-12-03T12:40:02.353Z,23.92
2018-12-03T12:42:31.916Z,22.40
2018-12-03T12:44:57.083Z,23.18
2018-12-03T12:47:24.353Z,22.82
2018-12-03T12:49:51.660Z,24.32
2018-12-03T12:52:18.912Z,18.95
2018-12-03T12:54:46.313Z,18.48
2018-12-03T12:57:13.664Z,23.10
2018-12-03T12:59:40.964Z,20.10
2018-12-03T13:02:09.102Z,21.02
2018-12-03T13:04:36.362Z,18.92
2018-12-03T13:07:03.692Z,21.48
2018-12-03T13:09:31.018Z,22.48
2018-12-03T13:11:58.326Z,25.88
2018-12-03T13:14:25.607Z,24.23
2018-12-03T13:16:52.907Z,25.05
2018-12-03T13:19:20.177Z,21.27
2018-12-03T13:21:47.460Z,24.82
2018-12-03T13:24:14.727Z,26.52
2018-12-03T13:26:42.464Z,24.07
2018-12-03T13:29:09.855Z,20.25
2018-12-03T13:31:37.188Z,22.35
2018-12-03T13:34:04.852Z,19.37
2018-12-03T13:36:32.103Z,22.85
2018-12-03T13:38:59.394Z,22.50
2018-12-03T13:41:26.775Z,20.37
2018-12-03T13:43:54.069Z,27.10
2018-12-03T13:46:21.370Z,21.20
2018-12-03T13:48:48.682Z,23.70
2018-12-03T13:51:15.972Z,22.77
2018-12-03T13:53:43.322Z,19.65
2018-12-03T13:56:10.641Z,23.38
2018-12-03T13:58:38.001Z,19.25
2018-12-03T14:01:05.407Z,19.45
2018-12-03T14:03:33.877Z,21.05
2018-12-03T14:06:06.837Z,25.32
2018-12-03T14:08:47.960Z,19.45
2018-12-03T14:11:16.900Z,20.72
2018-12-03T14:13:50.343Z,22.52
2018-12-03T14:16:21.469Z,23.38
2018-12-03T14:18:53.688Z,25.25
2018-12-03T14:21:23.517Z,24.77
2018-12-03T14:23:51.972Z,21.73
2018-12-03T14:26:19.333Z,20.48
2018-12-03T14:28:46.625Z,28.62
2018-12-03T14:31:13.986Z,24.12
2018-12-03T14:33:41.264Z,26.68
2018-12-03T14:36:08.592Z,20.20
2018-12-03T14:38:35.856Z,24.55
2018-12-03T14:41:03.184Z,23.47
2018-12-03T14:43:30.452Z,20.90
2018-12-03T14:45:57.756Z,26.73
2018-12-03T14:48:25.066Z,22.75
2018-12-03T14:50:53.182Z,22.30
2018-12-03T14:53:20.477Z,19.20
2018-12-03T14:55:47.878Z,19.05
2018-12-03T14:58:15.158Z,24.52
2018-12-03T15:00:42.500Z,19.35
2018-12-03T15:03:09.800Z,18.85
2018-12-03T15:05:37.116Z,20.88
2018-12-03T15:08:04.412Z,21.10
2018-12-03T15:10:31.730Z,24.05
2018-12-03T15:12:59.440Z,19.73
2018-12-03T15:15:26.741Z,18.70
2018-12-03T15:17:54.044Z,17.15
2018-12-03T15:20:21.361Z,19.17
2018-12-03T15:22:48.652Z,15.70
2018-12-03T15:25:15.987Z,19.67
2018-12-03T15:27:43.284Z,19.57
2018-12-03T15:30:10.963Z,17.82
2018-12-03T15:32:38.297Z,17.02
2018-12-03T15:35:06.806Z,19.77
2018-12-03T15:37:34.048Z,17.42
2018-12-03T15:40:01.524Z,20.30
2018-12-03T15:42:28.818Z,18.20
2018-12-03T15:44:56.133Z,18.42
2018-12-03T15:47:23.561Z,20.30
2018-12-03T15:49:50.864Z,18.02
2018-12-03T15:52:18.149Z,19.62
2018-12-03T15:54:45.484Z,18.60
2018-12-03T15:57:12.761Z,18.42
2018-12-03T15:59:40.044Z,17.62
2018-12-03T16:02:07.394Z,18.98
2018-12-03T16:04:34.690Z,18.23
2018-12-03T16:07:02.275Z,22.58
2018-12-03T16:09:29.613Z,20.75
2018-12-03T16:11:56.886Z,23.47
2018-12-03T16:14:24.220Z,26.35
2018-12-03T16:16:51.503Z,20.75
2018-12-03T16:19:18.820Z,22.85
2018-12-03T16:21:46.168Z,22.05
2018-12-03T16:24:13.480Z,20.57
2018-12-03T16:26:40.793Z,20.35
2018-12-03T16:29:08.101Z,23.47
2018-12-03T16:31:35.415Z,28.45
2018-12-03T16:34:02.732Z,24.32
2018-12-03T16:36:30.359Z,21.50
2018-12-03T16:38:57.700Z,23.00
2018-12-03T16:41:25.033Z,25.08
2018-12-03T16:43:52.332Z,20.92
2018-12-03T16:46:19.722Z,21.90
2018-12-03T16:48:47.025Z,24.10
2018-12-03T16:51:14.360Z,21.15
2018-12-03T16:53:41.625Z,21.10
2018-12-03T16:56:08.968Z,20.30
2018-12-03T16:58:36.233Z,21.97
2018-12-03T17:01:03.547Z,19.73
2018-12-03T17:03:30.898Z,21.77
2018-12-03T17:05:58.181Z,18.40
2018-12-03T17:08:25.492Z,20.72
2018-12-03T17:10:52.956Z,22.80
2018-12-03T17:13:20.308Z,21.68
2018-12-03T17:15:47.725Z,22.13
2018-12-03T17:18:15.017Z,19.57
2018-12-03T17:20:50.825Z,26.00
2018-12-03T17:23:23.663Z,20.43
2018-12-03T17:25:51.275Z,20.57
2018-12-03T17:28:18.577Z,23.47
2018-12-03T17:30:45.844Z,21.48
2018-12-03T17:33:13.156Z,20.02
2018-12-03T17:35:40.469Z,21.02
2018-12-03T17:38:07.831Z,19.95
2018-12-03T17:40:35.181Z,20.90
2018-12-03T17:43:02.464Z,23.47
2018-12-03T17:45:29.778Z,21.35
2018-12-03T17:47:57.068Z,19.07
2018-12-03T17:50:24.483Z,22.00
2018-12-03T17:52:51.823Z,20.77
2018-12-03T17:55:19.182Z,19.95
2018-12-03T17:57:46.480Z,20.15
2018-12-03T18:00:14.203Z,18.62
2018-12-03T18:02:41.524Z,20.25
2018-12-03T18:05:08.933Z,19.50
2018-12-03T18:07:36.259Z,18.62
2018-12-03T18:10:03.915Z,18.02
2018-12-03T18:12:31.176Z,19.23
2018-12-03T18:14:58.524Z,19.77
2018-12-03T18:17:25.877Z,20.77
2018-12-03T18:19:53.249Z,19.00
2018-12-03T18:22:20.644Z,20.82
2018-12-03T18:24:48.069Z,19.17
2018-12-03T18:27:15.455Z,22.55
2018-12-03T18:29:42.880Z,21.75
2018-12-03T18:32:10.733Z,24.80
2018-12-03T18:34:38.097Z,23.98
2018-12-03T18:37:05.495Z,25.70
2018-12-03T18:39:32.921Z,25.25
2018-12-03T18:42:54.536Z,28.65
2018-12-03T18:45:21.868Z,27.60
2018-12-03T18:47:49.263Z,25.88
2018-12-03T18:50:18.308Z,24.80
2018-12-03T18:52:45.653Z,23.60
2018-12-03T18:55:12.965Z,27.20
2018-12-03T18:57:40.476Z,22.55
2018-12-03T19:00:10.379Z,19.77
2018-12-03T19:02:37.762Z,24.70
2018-12-03T19:05:05.282Z,20.97
2018-12-03T19:07:32.641Z,22.82
2018-12-03T19:10:00.025Z,20.85
2018-12-03T19:12:27.363Z,21.90
2018-12-03T19:23:18.114Z,25.55
2018-12-03T19:25:45.485Z,21.52
2018-12-03T19:28:12.846Z,26.60
2018-12-03T19:30:40.249Z,21.17
2018-12-03T19:33:07.580Z,21.25
2018-12-03T19:35:34.969Z,24.82
2018-12-03T19:38:02.393Z,19.95
2018-12-03T19:40:29.712Z,21.73
2018-12-03T19:42:57.063Z,21.90
2018-12-03T19:45:25.988Z,25.68
2018-12-03T19:47:53.318Z,26.00
2018-12-03T19:50:20.803Z,20.05
2018-12-03T19:52:49.313Z,23.05
2018-12-03T19:55:16.780Z,23.85
2018-12-03T19:57:46.668Z,21.82
2018-12-03T20:00:14.881Z,28.98
2018-12-03T20:02:42.349Z,25.55
2018-12-03T20:05:15.125Z,24.90
2018-12-03T20:07:42.515Z,22.70
2018-12-03T20:10:09.939Z,22.58
2018-12-03T20:12:37.293Z,22.13
2018-12-03T20:15:05.525Z,23.67
2018-12-03T20:20:24.302Z,23.92
2018-12-03T20:22:55.088Z,23.83
2018-12-03T20:25:23.970Z,21.77
2018-12-03T20:27:54.832Z,25.40
2018-12-03T20:30:27.894Z,22.80
2018-12-03T20:32:58.844Z,24.05
2018-12-03T20:35:31.110Z,26.33
2018-12-03T20:38:02.189Z,24.95
2018-12-03T20:40:32.098Z,22.65
2018-12-03T20:43:02.237Z,22.00
2018-12-03T20:45:34.352Z,22.65
2018-12-03T20:48:01.866Z,23.80
2018-12-03T20:50:34.478Z,24.80
2018-12-03T20:53:01.826Z,26.77
2018-12-03T20:55:34.422Z,25.62
2018-12-03T20:58:01.777Z,21.35
2018-12-03T21:00:29.158Z,23.85
2018-12-03T21:02:57.889Z,25.97
2018-12-03T21:05:25.636Z,26.62
2018-12-03T21:07:53.043Z,25.62
2018-12-03T21:10:20.410Z,26.52
2018-12-03T21:12:47.828Z,27.32
2018-12-03T21:15:15.255Z,27.48
2018-12-03T21:17:42.659Z,28.60
2018-12-03T21:20:17.614Z,28.38
2018-12-03T21:22:44.950Z,27.35
2018-12-03T21:25:12.362Z,34.13
2018-12-03T21:27:39.904Z,30.70
2018-12-03T21:30:08.390Z,32.05
2018-12-03T21:32:35.789Z,28.30
2018-12-03T21:35:03.544Z,29.23
2018-12-03T21:37:31.052Z,29.48
2018-12-03T21:39:58.447Z,30.10
2018-12-03T21:42:25.908Z,27.42
2018-12-03T21:44:54.724Z,28.00
2018-12-03T21:47:22.104Z,27.52
2018-12-03T21:49:49.568Z,31.30
2018-12-03T21:52:16.903Z,33.98
2018-12-03T21:54:44.228Z,28.25
2018-12-03T21:57:11.612Z,31.05
2018-12-03T21:59:38.984Z,33.80
2018-12-03T22:02:06.360Z,30.50
2018-12-03T22:04:33.690Z,28.10
2018-12-03T22:07:01.177Z,29.23
2018-12-03T22:09:29.740Z,33.48
2018-12-03T22:11:57.133Z,31.00
2018-12-03T22:14:24.402Z,36.10
2018-12-03T22:16:51.801Z,31.15
2018-12-03T22:19:19.134Z,30.55
2018-12-03T22:21:47.081Z,30.82
2018-12-03T22:24:14.422Z,27.82
2018-12-03T22:26:41.735Z,29.25
2018-12-03T22:37:32.615Z,30.95
2018-12-03T22:39:59.954Z,30.88
2018-12-03T22:42:27.283Z,29.27
2018-12-03T22:44:54.689Z,30.72
2018-12-03T22:47:22.031Z,27.60
2018-12-03T22:49:49.425Z,28.98
2018-12-03T22:52:17.549Z,30.95
2018-12-03T22:54:44.925Z,39.50
2018-12-03T22:57:12.233Z,28.70
2018-12-03T22:59:39.547Z,30.95
2018-12-03T23:02:06.957Z,24.05
2018-12-03T23:04:39.130Z,17.12
2018-12-03T23:07:06.460Z,16.27
2018-12-03T23:09:34.097Z,18.20
2018-12-03T23:12:01.458Z,16.57
2018-12-03T23:14:28.824Z,17.50
2018-12-03T23:16:56.180Z,14.87
2018-12-03T23:19:23.577Z,15.85
2018-12-03T23:21:50.904Z,15.58
2018-12-03T23:24:18.328Z,15.05
2018-12-03T23:26:45.665Z,15.50
2018-12-03T23:37:38.932Z,20.12
2018-12-03T23:40:06.359Z,17.20
2018-12-03T23:42:33.805Z,17.82
2018-12-03T23:45:01.126Z,18.07
2018-12-03T23:47:28.432Z,17.02
2018-12-03T23:49:55.754Z,18.87
2018-12-03T23:52:23.064Z,16.00
2018-12-03T23:54:50.368Z,16.17
2018-12-03T23:57:17.684Z,16.30
2018-12-03T23:59:47.111Z,14.05
